Data for 10/13/2007

Time Sea-Level Adjusted Pressure Absolute Pressure Temperature Relative Humidity Dew Point   
(mb) (inHg) (mb) (inHg) (C) (F) (%) (C) (F)
00:05 1012 29.88 842 24.86 9.8 49.6 49 -0.4 31.3
00:10 1012 29.88 842 24.86 9.6 49.2 48 -0.8 30.6
00:15 1012 29.88 842 24.86 9.6 49.3 50 -0.3 31.4
00:20 1012 29.88 842 24.86 9.4 48.9 50 -0.5 31.1
00:25 1012 29.88 842 24.86 9.1 48.4 51 -0.5 31.2
00:30 1012 29.88 842 24.86 9 48.3 52 -0.3 31.5
00:35 1012 29.88 842 24.86 9 48.3 52 -0.4 31.3
00:40 1012 29.88 842 24.86 9.1 48.3 51 -0.4 31.2
00:45 1012 29.88 842 24.86 9.1 48.5 51 -0.5 31.1
00:50 1012 29.88 842 24.86 9.2 48.6 51 -0.3 31.5
00:55 1012 29.88 842 24.86 9.2 48.5 51 -0.3 31.4
01:00 1012 29.88 842 24.86 9 48.3 52 -0.2 31.7
01:05 1012 29.88 842 24.86 8.6 47.5 55 0.1 32.1
01:10 1012 29.88 842 24.86 8.4 47 55 -0.1 31.8
01:15 1012 29.88 842 24.86 8 46.3 57 -0.1 31.8
01:20 1012 29.88 842 24.86 7.9 46.1 56 -0.3 31.5
01:25 1012 29.88 842 24.86 7.9 46.3 55 -0.4 31.2
01:30 1012 29.88 842 24.86 8.1 46.6 55 -0.4 31.3
01:35 1012 29.88 842 24.86 8 46.5 55 -0.5 31
01:40 1012 29.88 842 24.86 8 46.4 55 -0.5 31.2
01:45 1012 29.88 842 24.86 7.7 45.9 58 0 32.1
01:50 1013 29.91 842 24.86 7.4 45.3 60 0.2 32.3
01:55 1013 29.91 842 24.86 7 44.6 60 -0.2 31.6
02:00 1013 29.91 842 24.86 7 44.6 58 -0.8 30.6
02:05 1013 29.91 842 24.86 7.3 45.2 54 -1.3 29.7
02:10 1013 29.91 842 24.86 7.7 45.9 54 -0.9 30.3
02:15 1013 29.91 842 24.86 7.8 46 54 -0.9 30.3
02:20 1013 29.91 842 24.86 7.7 45.9 55 -0.8 30.5
02:25 1013 29.91 842 24.86 7.6 45.6 55 -0.9 30.3
02:30 1013 29.91 842 24.86 7.6 45.6 55 -0.9 30.3
02:35 1013 29.91 842 24.86 7.6 45.6 55 -0.9 30.4
02:40 1013 29.91 842 24.86 7.5 45.5 56 -0.7 30.8
02:45 1013 29.91 842 24.86 7.4 45.2 57 -0.5 31.1
02:50 1013 29.91 842 24.86 7.4 45.2 55 -1.1 30.1
02:55 1013 29.91 842 24.86 7.6 45.7 54 -1 30.2
03:00 1013 29.91 842 24.86 7.8 46 54 -0.8 30.6
03:05 1013 29.91 842 24.86 7.9 46.3 54 -0.7 30.7
03:10 1013 29.91 842 24.86 8 46.4 55 -0.5 31.1
03:15 1013 29.91 842 24.86 7.9 46.3 53 -1 30.2
03:20 1013 29.91 842 24.86 7.9 46.3 52 -1.2 29.9
03:25 1013 29.91 842 24.86 8 46.4 53 -1.1 30
03:30 1013 29.91 842 24.86 8 46.3 55 -0.5 31.1
03:35 1013 29.91 842 24.86 7.8 46 56 -0.4 31.3
03:40 1013 29.91 842 24.86 7.3 45.2 58 -0.3 31.5
03:45 1013 29.91 842 24.86 6.9 44.4 64 0.5 32.9
03:50 1013 29.91 842 24.86 6.7 44 59 -0.8 30.6
03:55 1013 29.91 842 24.86 7.1 44.7 63 0.5 32.8
04:00 1013 29.91 842 24.86 6.8 44.3 60 -0.3 31.4
04:05 1013 29.91 842 24.86 7.1 44.8 59 -0.3 31.5
04:10 1013 29.91 843 24.89 7.2 45 60 0 32.1
04:15 1013 29.91 843 24.89 7.1 44.8 62 0.5 32.8
04:20 1013 29.91 843 24.89 6.6 43.9 64 0.3 32.6
04:25 1014 29.94 843 24.89 6.3 43.3 65 0.1 32.2
04:30 1014 29.94 843 24.89 6.2 43.2 65 0.2 32.3
04:35 1014 29.94 843 24.89 6.1 42.9 66 0.2 32.3
04:40 1014 29.94 843 24.89 6 42.8 66 0.2 32.4
04:45 1014 29.94 843 24.89 6 42.8 63 -0.4 31.3
04:50 1014 29.94 843 24.89 6.5 43.8 61 -0.4 31.3
04:55 1014 29.94 843 24.89 6.9 44.4 60 -0.3 31.4
05:00 1014 29.94 843 24.89 7.2 44.9 59 -0.2 31.6
05:05 1014 29.94 843 24.89 7.3 45.1 59 -0.1 31.8
05:10 1014 29.94 843 24.89 7.2 45 61 0.3 32.5
05:15 1014 29.94 843 24.89 6.9 44.4 62 0.2 32.3
05:20 1014 29.94 843 24.89 6.5 43.8 61 -0.3 31.5
05:25 1014 29.94 843 24.89 6.6 43.9 62 -0.1 31.8
05:30 1014 29.94 843 24.89 6.7 44 63 0.1 32.2
05:35 1014 29.94 843 24.89 6.9 44.5 62 0.2 32.4
05:40 1014 29.94 843 24.89 7.2 44.9 61 0.2 32.4
05:45 1014 29.94 843 24.89 7.3 45.1 62 0.4 32.8
05:50 1014 29.94 843 24.89 7.3 45.1 62 0.6 33
05:55 1014 29.94 843 24.89 7.3 45.2 61 0.3 32.5
06:00 1014 29.94 844 24.92 7.6 45.6 61 0.6 33.1
06:05 1014 29.94 844 24.92 7.6 45.6 61 0.6 33
06:10 1014 29.94 844 24.92 7.6 45.6 61 0.6 33.1
06:15 1014 29.94 844 24.92 7.7 45.8 59 0.2 32.4
06:20 1014 29.94 844 24.92 7.8 46 59 0.3 32.6
06:25 1015 29.97 844 24.92 7.9 46.2 59 0.4 32.6
06:30 1015 29.97 844 24.92 7.9 46.2 60 0.5 33
06:35 1015 29.97 844 24.92 7.8 46 60 0.6 33.1
06:40 1015 29.97 844 24.92 7.6 45.7 61 0.6 33
06:45 1015 29.97 844 24.92 7.5 45.4 62 0.7 33.2
06:50 1015 29.97 844 24.92 7.3 45.2 62 0.6 33.1
06:55 1015 29.97 844 24.92 7.3 45.1 63 0.7 33.2
07:00 1015 29.97 844 24.92 7.1 44.8 64 0.7 33.3
07:05 1015 29.97 844 24.92 7 44.6 63 0.5 33
07:10 1015 29.97 844 24.92 7 44.7 64 0.7 33.2
07:15 1015 29.97 844 24.92 6.9 44.5 65 0.8 33.5
07:20 1015 29.97 844 24.92 6.7 44.1 65 0.7 33.3
07:25 1015 29.97 844 24.92 6.6 43.9 66 0.6 33.2
07:30 1015 29.97 844 24.92 6.6 44 65 0.5 33
07:35 1015 29.97 844 24.92 6.9 44.3 64 0.6 33
07:40 1015 29.97 844 24.92 7 44.7 64 0.8 33.4
07:45 1015 29.97 844 24.92 7.1 44.7 65 1.1 33.9
07:50 1015 29.97 845 24.95 6.8 44.3 66 0.9 33.7
07:55 1015 29.97 845 24.95 6.7 44.1 66 0.7 33.3
08:00 1015 29.97 845 24.95 6.7 44.1 66 0.8 33.4
08:05 1016 30 845 24.95 6.8 44.2 66 0.9 33.6
08:10 1016 30 845 24.95 6.9 44.5 65 0.8 33.4
08:15 1016 30 845 24.95 7.2 44.9 64 0.9 33.6
08:20 1016 30 845 24.95 7.2 45 66 1.2 34.2
08:25 1016 30 845 24.95 7.1 44.8 66 1.3 34.4
08:30 1016 30 845 24.95 7.2 45 64 0.9 33.6
08:35 1016 30 845 24.95 7.6 45.7 63 1 33.9
08:40 1016 30 845 24.95 7.8 46 63 1.2 34.1
08:45 1016 30 845 24.95 8 46.3 62 1.2 34.1
08:50 1016 30 845 24.95 8.1 46.6 63 1.5 34.6
08:55 1016 30 845 24.95 8.2 46.8 63 1.5 34.8
09:00 1016 30 845 24.95 8.3 46.9 62 1.5 34.6
09:05 1016 30 845 24.95 8.4 47.1 61 1.3 34.3
09:10 1016 30 845 24.95 8.5 47.3 61 1.4 34.5
09:15 1016 30 845 24.95 8.8 47.8 61 1.7 35
09:20 1016 30 845 24.95 8.8 47.8 61 1.8 35.2
09:25 1016 30 845 24.95 8.4 47.1 64 1.9 35.5
09:30 1016 30 846 24.98 8.1 46.7 64 1.8 35.2
09:35 1016 30 846 24.98 8.4 47.2 61 1.5 34.6
09:40 1016 30 846 24.98 8.9 48.1 61 1.8 35.2
09:45 1016 30 846 24.98 8.9 48 62 1.9 35.5
09:50 1016 30 846 24.98 8.8 47.8 60 1.5 34.8
09:55 1016 30 846 24.98 9.4 49 58 1.6 34.9
10:00 1016 30 846 24.98 9.7 49.5 58 2 35.6
10:05 1016 30 846 24.98 10 50 56 1.8 35.2
10:10 1016 30 846 24.98 10.4 50.8 55 1.9 35.3
10:15 1016 30 846 24.98 10.7 51.3 54 1.9 35.3
10:20 1016 30 846 24.98 10.9 51.6 55 2.1 35.9
10:25 1016 30 846 24.98 11.1 52 52 1.6 34.8
10:30 1017 30.03 846 24.98 10.8 51.5 52 1.5 34.7
10:35 1017 30.03 846 24.98 10.8 51.5 52 1.5 34.8
10:40 1017 30.03 846 24.98 11 51.8 52 1.5 34.8
10:45 1017 30.03 846 24.98 10.6 51 54 1.7 35.1
10:50 1017 30.03 846 24.98 11 51.9 51 1.4 34.5
10:55 1017 30.03 846 24.98 11.5 52.7 50 1.4 34.5
11:00 1017 30.03 846 24.98 10.9 51.6 52 1.5 34.7
11:05 1017 30.03 846 24.98 11.1 51.9 49 0.9 33.7
11:10 1017 30.03 846 24.98 12.2 54 47 1.3 34.3
11:15 1017 30.03 846 24.98 12.3 54.1 47 1.5 34.7
11:20 1017 30.03 846 24.98 12.5 54.5 47 1.6 34.8
11:25 1017 30.03 846 24.98 12.2 53.9 48 1.6 34.8
11:30 1017 30.03 846 24.98 12.4 54.3 46 1.1 34
11:35 1017 30.03 846 24.98 13.2 55.8 42 0.7 33.3
11:40 1017 30.03 846 24.98 13.1 55.5 46 1.6 34.9
11:45 1017 30.03 846 24.98 11.7 53.1 49 1.4 34.5
11:50 1017 30.03 846 24.98 12.5 54.5 47 1.6 34.9
11:55 1017 30.03 846 24.98 13 55.3 45 1.3 34.4
12:00 1017 30.03 846 24.98 13 55.4 44 1 33.8
12:05 1017 30.03 846 24.98 12.7 54.9 45 1 33.8
12:10 1017 30.03 846 24.98 12.8 55 44 0.8 33.4
12:15 1017 30.03 846 24.98 12.7 54.8 44 0.9 33.6
12:20 1017 30.03 846 24.98 12.5 54.5 46 1.1 34
12:25 1017 30.03 846 24.98 12.4 54.3 44 0.6 33.2
12:30 1017 30.03 846 24.98 13 55.3 42 0.4 32.8
12:35 1017 30.03 846 24.98 13.3 55.9 43 0.9 33.6
12:40 1017 30.03 846 24.98 13.2 55.7 43 0.9 33.7
12:45 1017 30.03 846 24.98 12.8 55.1 44 1 33.8
12:50 1017 30.03 846 24.98 12.9 55.3 43 0.6 33.1
12:55 1017 30.03 846 24.98 13.3 55.9 43 1.1 34
13:00 1017 30.03 846 24.98 13.4 56.1 43 1.2 34.1
13:05 1017 30.03 846 24.98 13.4 56.1 42 1 33.7
13:10 1017 30.03 846 24.98 13.7 56.7 41 0.7 33.2
13:15 1016 30 846 24.98 14.6 58.3 38 0.6 33.1
13:20 1016 30 846 24.98 15 59.1 38 0.9 33.7
13:25 1016 30 846 24.98 15 59.1 40 1.5 34.8
13:30 1016 30 846 24.98 14.7 58.4 40 1.2 34.1
13:35 1016 30 846 24.98 14.4 57.9 39 0.7 33.2
13:40 1016 30 846 24.98 14.9 58.7 38 0.8 33.5
13:45 1016 30 846 24.98 15.1 59.2 37 0.6 33
13:50 1016 30 846 24.98 15 58.9 38 0.9 33.6
13:55 1016 30 846 24.98 14.9 58.9 39 1.4 34.5
14:00 1016 30 846 24.98 13.8 56.9 44 1.8 35.3
14:05 1016 30 846 24.98 13.3 55.9 43 1 33.9
14:10 1016 30 845 24.95 13.5 56.2 43 1.1 33.9
14:15 1016 30 846 24.98 13.7 56.7 43 1.3 34.4
14:20 1016 30 845 24.95 13.8 56.8 43 1.4 34.5
14:25 1016 30 845 24.95 13.9 57 41 1 33.8
14:30 1016 30 845 24.95 13.5 56.4 43 1.1 34
14:35 1016 30 846 24.98 13.5 56.2 43 1.2 34.1
14:40 1016 30 846 24.98 13.4 56.2 42 0.9 33.6
14:45 1016 30 846 24.98 13.6 56.5 42 1 33.8
14:50 1016 30 846 24.98 13.4 56.1 43 1.1 34.1
14:55 1016 30 846 24.98 13.4 56.1 42 0.9 33.6
15:00 1016 30 846 24.98 13.5 56.3 43 1.1 34
15:05 1016 30 846 24.98 13.5 56.3 41 0.7 33.2
15:10 1016 30 846 24.98 13.7 56.6 42 1 33.8
15:15 1017 30.03 846 24.98 13.8 56.9 41 1 33.8
15:20 1017 30.03 846 24.98 13.6 56.5 42 1.2 34.1
15:25 1017 30.03 846 24.98 13.5 56.4 42 0.8 33.4
15:30 1017 30.03 846 24.98 13.7 56.6 42 0.9 33.6
15:35 1017 30.03 846 24.98 13.6 56.5 40 0.5 32.8
15:40 1017 30.03 846 24.98 14.2 57.6 39 0.6 33.2
15:45 1017 30.03 846 24.98 13.4 56.1 42 0.9 33.7
15:50 1017 30.03 846 24.98 13.3 56 43 0.9 33.7
15:55 1017 30.03 846 24.98 13.3 55.9 43 1 33.8
16:00 1017 30.03 846 24.98 13.3 56 41 0.3 32.6
16:05 1017 30.03 846 24.98 14.1 57.3 38 0.1 32.2
16:10 1017 30.03 846 24.98 14.6 58.2 39 0.9 33.7
16:15 1017 30.03 846 24.98 14.1 57.4 41 1.3 34.3
16:20 1017 30.03 846 24.98 13.1 55.6 42 0.5 33
16:25 1017 30.03 846 24.98 13.6 56.4 41 0.6 33.1
16:30 1017 30.03 846 24.98 14.2 57.5 40 0.8 33.5
16:35 1017 30.03 846 24.98 13.6 56.6 41 0.6 33
16:40 1017 30.03 846 24.98 13.6 56.5 41 0.8 33.4
16:45 1017 30.03 846 24.98 13.9 57.1 39 0.3 32.5
16:50 1017 30.03 846 24.98 13.6 56.4 42 0.8 33.5
16:55 1017 30.03 846 24.98 13.7 56.7 39 0.1 32.2
17:00 1017 30.03 846 24.98 14.7 58.4 37 0.3 32.6
17:05 1017 30.03 846 24.98 14.8 58.6 38 0.7 33.3
17:10 1017 30.03 846 24.98 14.8 58.6 38 0.5 32.9
17:15 1017 30.03 846 24.98 14.9 58.8 38 0.8 33.4
17:20 1017 30.03 846 24.98 14.5 58 38 0.6 33
17:25 1017 30.03 846 24.98 15 59 36 0.3 32.6
17:30 1017 30.03 846 24.98 14.7 58.4 39 1 33.8
17:35 1017 30.03 846 24.98 14.4 57.9 38 0.3 32.5
17:40 1017 30.03 846 24.98 15.1 59.2 37 0.6 33.1
17:45 1017 30.03 846 24.98 14.8 58.6 39 0.9 33.6
17:50 1017 30.03 846 24.98 14.4 58 39 0.7 33.2
17:55 1017 30.03 846 24.98 14 57.1 40 0.8 33.4
18:00 1017 30.03 846 24.98 13.9 56.9 41 0.8 33.4
18:05 1017 30.03 846 24.98 14 57.1 40 0.6 33.1
18:10 1017 30.03 846 24.98 14.5 58 39 0.6 33.1
18:15 1017 30.03 847 25.01 14.5 58.2 39 0.7 33.2
18:20 1017 30.03 847 25.01 14.7 58.4 38 0.7 33.2
18:25 1017 30.03 847 25.01 14.6 58.3 38 0.7 33.3
18:30 1017 30.03 847 25.01 14.4 58 39 0.7 33.2
18:35 1017 30.03 847 25.01 14 57.2 46 2.6 36.6
18:40 1017 30.03 847 25.01 12.8 55.1 50 2.7 36.9
18:45 1017 30.03 847 25.01 12.2 53.9 51 2.4 36.4
18:50 1017 30.03 847 25.01 11.9 53.4 52 2.3 36.2
18:55 1017 30.03 847 25.01 11.7 53.1 52 2.1 35.8
19:00 1017 30.03 847 25.01 11.7 53.1 52 2.1 35.8
19:05 1018 30.06 847 25.01 11.6 52.8 53 2.2 36
19:10 1018 30.06 847 25.01 11.4 52.6 54 2.6 36.7
19:15 1018 30.06 847 25.01 11.2 52.2 55 2.7 36.8
19:20 1018 30.06 847 25.01 11.1 51.9 56 2.7 36.9
19:25 1018 30.06 847 25.01 11 51.9 55 2.4 36.2
19:30 1018 30.06 847 25.01 11 51.9 55 2.5 36.5
19:35 1018 30.06 847 25.01 10.9 51.7 56 2.6 36.7
19:40 1018 30.06 847 25.01 10.9 51.6 57 2.7 36.8
19:45 1018 30.06 847 25.01 10.7 51.3 58 2.8 37
19:50 1018 30.06 847 25.01 10.6 51 59 2.9 37.2
19:55 1018 30.06 847 25.01 10.3 50.6 62 3.3 37.9
20:00 1018 30.06 847 25.01 10 50 62 3.1 37.6
20:05 1018 30.06 847 25.01 9.8 49.6 62 2.9 37.2
20:10 1018 30.06 847 25.01 9.8 49.6 62 2.8 37.1
20:15 1018 30.06 847 25.01 9.7 49.5 63 3 37.4
20:20 1018 30.06 847 25.01 9.5 49.2 64 3.2 37.8
20:25 1018 30.06 847 25.01 9.4 48.9 64 2.9 37.2
20:30 1018 30.06 847 25.01 9.4 48.8 64 2.9 37.2
20:35 1018 30.06 847 25.01 9.3 48.7 64 2.9 37.3
20:40 1018 30.06 847 25.01 9.3 48.7 63 2.6 36.8
20:45 1018 30.06 847 25.01 9.3 48.7 65 3.1 37.6
20:50 1018 30.06 847 25.01 9.1 48.3 67 3.3 37.9
20:55 1018 30.06 847 25.01 8.9 47.9 68 3.3 38
21:00 1018 30.06 847 25.01 8.7 47.7 69 3.4 38.1
21:05 1018 30.06 847 25.01 8.7 47.6 69 3.3 38
21:10 1018 30.06 847 25.01 8.5 47.3 68 3 37.5
21:15 1018 30.06 848 25.04 8.6 47.5 67 2.9 37.3
21:20 1018 30.06 848 25.04 8.6 47.5 67 3 37.3
21:25 1018 30.06 848 25.04 8.6 47.4 67 2.7 36.9
21:30 1018 30.06 848 25.04 8.7 47.7 66 2.7 36.9
21:35 1018 30.06 848 25.04 8.7 47.7 66 2.7 36.9
21:40 1018 30.06 848 25.04 8.6 47.5 66 2.7 36.8
21:45 1018 30.06 848 25.04 8.5 47.3 67 2.7 36.8
21:50 1018 30.06 848 25.04 8.2 46.7 69 2.8 37
21:55 1018 30.06 848 25.04 7.9 46.1 70 2.8 37
22:00 1018 30.06 848 25.04 7.7 45.9 71 2.7 36.9
22:05 1018 30.06 848 25.04 7.6 45.6 71 2.7 36.9
22:10 1018 30.06 848 25.04 7.4 45.4 72 2.7 36.9
22:15 1018 30.06 848 25.04 7.3 45.2 72 2.6 36.7
22:20 1018 30.06 848 25.04 7.3 45.1 72 2.5 36.6
22:25 1018 30.06 847 25.01 7.1 44.7 72 2.3 36.2
22:30 1018 30.06 848 25.04 7 44.6 71 2.2 35.9
22:35 1018 30.06 848 25.04 7.1 44.7 71 2.2 36
22:40 1018 30.06 848 25.04 7 44.7 71 2.2 36
22:45 1018 30.06 848 25.04 7 44.6 71 2.2 35.9
22:50 1018 30.06 848 25.04 6.9 44.5 72 2.2 35.9
22:55 1018 30.06 848 25.04 6.9 44.3 72 2.1 35.8
23:00 1018 30.06 848 25.04 6.8 44.2 72 2.1 35.8
23:05 1018 30.06 848 25.04 6.6 44 72 2 35.7
23:10 1018 30.06 848 25.04 6.5 43.8 73 2 35.6
23:15 1019 30.09 848 25.04 6.5 43.7 72 1.9 35.5
23:20 1019 30.09 848 25.04 6.4 43.6 73 1.9 35.5
23:25 1019 30.09 848 25.04 6.3 43.4 73 1.8 35.3
23:30 1019 30.09 848 25.04 6.4 43.5 71 1.5 34.6
23:35 1019 30.09 848 25.04 6.6 44 69 1.4 34.5
23:40 1019 30.09 848 25.04 6.8 44.3 69 1.5 34.8
23:45 1019 30.09 848 25.04 6.7 44.1 70 1.6 34.9
23:50 1019 30.09 848 25.04 6.5 43.6 71 1.6 35
23:55 1019 30.09 848 25.04 6 42.8 73 1.6 34.8
24:00 1019 30.09 848 25.04 5.8 42.5 74 1.5 34.7